Time;durP1;ratioP1;P1;durP2;ratioP2;P2;SDS_P1;SDS_P2;PMS_P1;PMS_P2;Temp;Humidity;BMP_temperature;BMP_pressure;BME280_temperature;BME280_humidity;BME280_pressure;Samples;Min_cycle;Max_cycle;Signal;HPM_P1;HPM_P2
2022/10/24 00:01:50;;;;;;;10.23;2.70;;;;;;;;;;5135793;27;20047;-71
2022/10/24 00:04:17;;;;;;;6.18;2.45;;;;;;;;;;5141842;27;20077;-72
2022/10/24 00:06:43;;;;;;;6.85;2.70;;;;;;;;;;5140099;27;20035;-71
2022/10/24 00:09:09;;;;;;;11.27;2.60;;;;;;;;;;5140014;27;20039;-71
2022/10/24 00:11:37;;;;;;;9.35;2.60;;;;;;;;;;5140660;27;20080;-71
2022/10/24 00:14:03;;;;;;;6.22;2.08;;;;;;;;;;5141211;27;20038;-71
2022/10/24 00:16:29;;;;;;;7.45;2.47;;;;;;;;;;5138769;27;20538;-71
2022/10/24 00:18:55;;;;;;;8.07;2.20;;;;;;;;;;5138795;27;20046;-71
2022/10/24 00:21:22;;;;;;;6.32;2.05;;;;;;;;;;5139819;27;20045;-71
2022/10/24 00:23:48;;;;;;;9.93;2.30;;;;;;;;;;5138812;27;21502;-71
2022/10/24 00:26:15;;;;;;;9.32;2.00;;;;;;;;;;5137846;27;20403;-71
2022/10/24 00:28:41;;;;;;;10.05;2.60;;;;;;;;;;5137570;27;20039;-71
2022/10/24 00:31:08;;;;;;;10.48;2.65;;;;;;;;;;5141530;27;20047;-71
2022/10/24 00:33:34;;;;;;;8.70;2.50;;;;;;;;;;5145337;27;20054;-71
2022/10/24 00:36:00;;;;;;;8.30;2.17;;;;;;;;;;5142654;27;20031;-71
2022/10/24 00:38:26;;;;;;;8.02;2.00;;;;;;;;;;5132731;27;20047;-71
2022/10/24 00:40:52;;;;;;;8.65;2.13;;;;;;;;;;5145732;27;20045;-71
2022/10/24 00:43:28;;;;;;;8.82;2.20;;;;;;;;;;5153898;27;20095;-70
2022/10/24 00:45:58;;;;;;;7.72;1.90;;;;;;;;;;5138188;27;20042;-71
2022/10/24 00:48:24;;;;;;;8.38;1.90;;;;;;;;;;5146575;27;20089;-70
2022/10/24 00:50:56;;;;;;;6.55;2.08;;;;;;;;;;5133590;27;20552;-70
2022/10/24 00:53:23;;;;;;;8.43;2.05;;;;;;;;;;5133759;27;20044;-71
2022/10/24 00:55:51;;;;;;;5.53;1.80;;;;;;;;;;5136572;27;20046;-70
2022/10/24 00:58:19;;;;;;;6.78;2.15;;;;;;;;;;5144939;27;20053;-71
2022/10/24 01:00:45;;;;;;;6.18;1.92;;;;;;;;;;5138904;27;20039;-71
2022/10/24 01:03:11;;;;;;;7.28;2.55;;;;;;;;;;5151940;27;20069;-71
2022/10/24 01:05:43;;;;;;;9.57;2.28;;;;;;;;;;5138451;27;20066;-71
2022/10/24 01:08:25;;;;;;;8.18;2.03;;;;;;;;;;5152111;27;20049;-71
2022/10/24 01:10:51;;;;;;;10.13;2.20;;;;;;;;;;5121038;27;20046;-70
2022/10/24 01:13:39;;;;;;;8.48;2.42;;;;;;;;;;5133833;27;20043;-71
2022/10/24 01:16:11;;;;;;;7.07;2.00;;;;;;;;;;5141609;27;20083;-71
2022/10/24 01:18:40;;;;;;;8.15;2.35;;;;;;;;;;5152228;27;20531;-71
2022/10/24 01:21:06;;;;;;;9.57;2.25;;;;;;;;;;5146981;27;20477;-71
2022/10/24 01:23:32;;;;;;;12.52;2.83;;;;;;;;;;5123317;27;20047;-71
2022/10/24 01:26:07;;;;;;;8.77;2.42;;;;;;;;;;5116408;27;20038;-71
2022/10/24 01:28:33;;;;;;;7.72;2.22;;;;;;;;;;5132545;27;20046;-71
2022/10/24 01:31:25;;;;;;;9.27;2.17;;;;;;;;;;5125158;27;20062;-71
2022/10/24 01:33:55;;;;;;;8.90;2.80;;;;;;;;;;5111112;27;20103;-71
2022/10/24 01:36:29;;;;;;;6.70;2.28;;;;;;;;;;5133408;27;20412;-71
2022/10/24 01:38:57;;;;;;;9.55;2.28;;;;;;;;;;5138741;27;20050;-71
2022/10/24 01:41:24;;;;;;;11.40;2.60;;;;;;;;;;5152883;27;20407;-71
2022/10/24 01:43:55;;;;;;;10.30;2.42;;;;;;;;;;5151870;27;20043;-71
2022/10/24 01:46:26;;;;;;;11.48;2.90;;;;;;;;;;5142825;27;20043;-71
2022/10/24 01:49:00;;;;;;;11.13;3.20;;;;;;;;;;5140499;27;20039;-71
2022/10/24 01:51:28;;;;;;;15.18;3.10;;;;;;;;;;5140958;27;20091;-71
2022/10/24 01:53:55;;;;;;;11.32;3.13;;;;;;;;;;5152660;27;20043;-71
2022/10/24 01:56:23;;;;;;;12.38;3.53;;;;;;;;;;5141655;27;20046;-70
2022/10/24 01:58:49;;;;;;;9.48;3.30;;;;;;;;;;5135398;27;20477;-71
2022/10/24 02:01:18;;;;;;;12.63;3.28;;;;;;;;;;5138063;27;20042;-71
2022/10/24 02:03:49;;;;;;;9.90;3.20;;;;;;;;;;5133361;27;20046;-71
2022/10/24 02:06:18;;;;;;;8.55;3.00;;;;;;;;;;5125647;27;20117;-71
2022/10/24 02:08:46;;;;;;;10.63;3.53;;;;;;;;;;5122127;27;20043;-71
2022/10/24 02:11:13;;;;;;;9.70;3.45;;;;;;;;;;5138220;27;20042;-71
2022/10/24 02:13:44;;;;;;;10.98;3.30;;;;;;;;;;5141887;27;20416;-71
2022/10/24 02:16:10;;;;;;;8.77;3.53;;;;;;;;;;5123058;27;20035;-71
2022/10/24 02:18:37;;;;;;;10.32;3.47;;;;;;;;;;5152351;27;20054;-72
2022/10/24 02:21:10;;;;;;;10.40;3.70;;;;;;;;;;5151724;27;20065;-71
2022/10/24 02:23:36;;;;;;;12.48;3.70;;;;;;;;;;5136733;27;20447;-71
2022/10/24 02:26:04;;;;;;;10.57;3.40;;;;;;;;;;5139085;27;20050;-71
2022/10/24 02:28:34;;;;;;;11.63;3.53;;;;;;;;;;5138426;27;20069;-71
2022/10/24 02:31:06;;;;;;;10.98;3.60;;;;;;;;;;5143694;27;20078;-70
2022/10/24 02:33:33;;;;;;;13.40;3.40;;;;;;;;;;5155789;27;20126;-71
2022/10/24 02:36:00;;;;;;;11.15;3.40;;;;;;;;;;5139706;27;20046;-70
2022/10/24 02:38:28;;;;;;;9.15;3.45;;;;;;;;;;5124940;27;20051;-71
2022/10/24 02:40:56;;;;;;;11.07;3.53;;;;;;;;;;5152303;27;20074;-71
2022/10/24 02:43:22;;;;;;;10.93;3.88;;;;;;;;;;5141285;27;20050;-71
2022/10/24 02:45:50;;;;;;;11.80;3.08;;;;;;;;;;5150697;27;20043;-71
2022/10/24 02:48:18;;;;;;;12.35;3.35;;;;;;;;;;5138323;27;20452;-71
2022/10/24 02:50:45;;;;;;;7.63;3.08;;;;;;;;;;5154539;27;20500;-71
2022/10/24 02:53:16;;;;;;;8.80;3.10;;;;;;;;;;5137368;27;20047;-71
2022/10/24 02:55:42;;;;;;;12.23;3.42;;;;;;;;;;5152760;27;20034;-71
2022/10/24 02:58:08;;;;;;;12.32;3.30;;;;;;;;;;5138699;27;20045;-71
2022/10/24 03:00:34;;;;;;;11.20;3.30;;;;;;;;;;5119835;27;20044;-71
2022/10/24 03:03:00;;;;;;;8.13;3.10;;;;;;;;;;5150886;27;20117;-71
2022/10/24 03:05:26;;;;;;;8.35;3.42;;;;;;;;;;5133940;27;20095;-71
2022/10/24 03:07:52;;;;;;;10.68;2.83;;;;;;;;;;5141624;27;20399;-71
2022/10/24 03:10:18;;;;;;;11.27;3.50;;;;;;;;;;5148554;27;20055;-71
2022/10/24 03:12:44;;;;;;;10.30;3.00;;;;;;;;;;5156646;27;20049;-71
2022/10/24 03:15:11;;;;;;;12.73;3.25;;;;;;;;;;5154435;27;20047;-71
2022/10/24 03:17:37;;;;;;;16.88;3.40;;;;;;;;;;5147915;27;20122;-71
2022/10/24 03:20:03;;;;;;;12.45;3.13;;;;;;;;;;5146766;27;20053;-71
2022/10/24 03:22:29;;;;;;;10.52;3.38;;;;;;;;;;5152328;27;20504;-71
2022/10/24 03:24:55;;;;;;;11.35;3.15;;;;;;;;;;5129931;27;20043;-71
2022/10/24 03:27:21;;;;;;;10.75;3.40;;;;;;;;;;5138739;27;20538;-70
2022/10/24 03:29:48;;;;;;;9.85;3.13;;;;;;;;;;5142084;27;20038;-70
2022/10/24 03:32:14;;;;;;;9.35;3.40;;;;;;;;;;5151480;27;20503;-71
2022/10/24 03:34:40;;;;;;;9.35;3.40;;;;;;;;;;5137002;27;20035;-71
2022/10/24 03:37:06;;;;;;;10.30;3.47;;;;;;;;;;5138145;27;20401;-71
2022/10/24 03:39:32;;;;;;;10.40;3.20;;;;;;;;;;5117452;27;20431;-71
2022/10/24 03:41:58;;;;;;;8.60;3.17;;;;;;;;;;5153007;27;20034;-71
2022/10/24 03:44:24;;;;;;;12.75;3.60;;;;;;;;;;5153530;27;20496;-71
2022/10/24 03:46:50;;;;;;;13.43;3.85;;;;;;;;;;5152920;27;20049;-71
2022/10/24 03:49:16;;;;;;;11.00;3.70;;;;;;;;;;5151239;27;20038;-71
2022/10/24 03:51:42;;;;;;;11.35;3.35;;;;;;;;;;5144802;27;20065;-71
2022/10/24 03:54:09;;;;;;;11.93;3.42;;;;;;;;;;5117132;27;20039;-72
2022/10/24 03:56:35;;;;;;;10.90;3.00;;;;;;;;;;5137824;27;20049;-71
2022/10/24 03:59:02;;;;;;;10.80;3.53;;;;;;;;;;5147276;27;20047;-71
2022/10/24 04:01:28;;;;;;;9.52;2.95;;;;;;;;;;5143838;27;20046;-71
2022/10/24 04:03:54;;;;;;;10.65;3.20;;;;;;;;;;5133958;27;20519;-71
2022/10/24 04:06:20;;;;;;;8.55;3.10;;;;;;;;;;5146361;27;20043;-71
2022/10/24 04:08:46;;;;;;;12.23;2.92;;;;;;;;;;5140890;27;20055;-71
2022/10/24 04:11:12;;;;;;;12.30;3.10;;;;;;;;;;5141864;27;20034;-71
2022/10/24 04:13:39;;;;;;;12.10;2.60;;;;;;;;;;5156358;27;20042;-71
2022/10/24 04:16:05;;;;;;;8.93;2.22;;;;;;;;;;5154736;27;20488;-71
2022/10/24 04:18:31;;;;;;;8.00;2.13;;;;;;;;;;5155677;27;20042;-71
2022/10/24 04:20:57;;;;;;;9.77;2.17;;;;;;;;;;5151257;27;20061;-71
2022/10/24 04:23:24;;;;;;;10.30;2.33;;;;;;;;;;5121140;27;20047;-71
2022/10/24 04:25:50;;;;;;;6.45;2.45;;;;;;;;;;5141566;27;20043;-71
2022/10/24 04:28:16;;;;;;;11.20;2.35;;;;;;;;;;5138112;27;20076;-71
2022/10/24 04:30:43;;;;;;;10.07;2.35;;;;;;;;;;5151209;27;20039;-71
2022/10/24 04:33:09;;;;;;;9.50;2.78;;;;;;;;;;5132353;27;20046;-72
2022/10/24 04:35:35;;;;;;;9.13;2.65;;;;;;;;;;5139545;27;20042;-71
2022/10/24 04:38:01;;;;;;;7.53;2.08;;;;;;;;;;5141010;27;20043;-71
2022/10/24 04:40:27;;;;;;;10.93;2.72;;;;;;;;;;5143424;27;20415;-71
2022/10/24 04:42:53;;;;;;;7.47;1.98;;;;;;;;;;5131104;27;20045;-71
2022/10/24 04:45:19;;;;;;;9.23;2.17;;;;;;;;;;5152830;27;20038;-71
2022/10/24 04:47:45;;;;;;;13.75;2.30;;;;;;;;;;5146078;27;20054;-71
2022/10/24 04:50:11;;;;;;;10.40;1.98;;;;;;;;;;5141734;27;20071;-71
2022/10/24 04:52:37;;;;;;;7.80;2.05;;;;;;;;;;5138513;27;20046;-71
2022/10/24 04:55:03;;;;;;;8.38;1.83;;;;;;;;;;5149955;27;20469;-71
2022/10/24 04:57:29;;;;;;;8.95;1.70;;;;;;;;;;5145124;27;20038;-71
2022/10/24 04:59:55;;;;;;;10.05;1.80;;;;;;;;;;5142053;27;20407;-71
2022/10/24 05:02:21;;;;;;;10.88;2.08;;;;;;;;;;5133058;27;20143;-71
2022/10/24 05:04:47;;;;;;;7.78;1.90;;;;;;;;;;5133495;27;20050;-71
2022/10/24 05:07:14;;;;;;;10.02;2.00;;;;;;;;;;5132464;27;20047;-71
2022/10/24 05:09:40;;;;;;;9.40;2.13;;;;;;;;;;5153710;27;20088;-72
2022/10/24 05:12:06;;;;;;;8.13;1.95;;;;;;;;;;5138711;27;20505;-71
2022/10/24 05:14:32;;;;;;;6.30;1.85;;;;;;;;;;5138916;27;20115;-71
2022/10/24 05:16:58;;;;;;;10.55;2.05;;;;;;;;;;5149225;27;20454;-71
2022/10/24 05:19:24;;;;;;;7.07;1.63;;;;;;;;;;5139223;27;20400;-71
2022/10/24 05:21:50;;;;;;;10.77;2.30;;;;;;;;;;5144292;27;20408;-71
2022/10/24 05:24:16;;;;;;;9.95;2.17;;;;;;;;;;5133392;27;20047;-71
2022/10/24 05:26:42;;;;;;;8.70;1.80;;;;;;;;;;5132618;27;20046;-71
2022/10/24 05:29:08;;;;;;;6.97;1.60;;;;;;;;;;5136847;27;20039;-71
2022/10/24 05:31:34;;;;;;;10.82;2.10;;;;;;;;;;5141038;27;20039;-71
2022/10/24 05:34:00;;;;;;;10.68;2.13;;;;;;;;;;5137788;27;20800;-71
2022/10/24 05:36:26;;;;;;;8.27;1.92;;;;;;;;;;5137973;27;20058;-71
2022/10/24 05:38:52;;;;;;;11.60;2.13;;;;;;;;;;5140821;27;20091;-71
2022/10/24 05:41:18;;;;;;;10.82;1.90;;;;;;;;;;5139488;27;20050;-71
2022/10/24 05:43:44;;;;;;;7.63;2.03;;;;;;;;;;5147662;27;20038;-71
2022/10/24 05:46:10;;;;;;;8.23;1.90;;;;;;;;;;5141049;27;20038;-71
2022/10/24 05:48:36;;;;;;;7.88;1.73;;;;;;;;;;5148855;27;20035;-71
2022/10/24 05:51:02;;;;;;;9.02;1.70;;;;;;;;;;5140548;27;20039;-71
2022/10/24 05:53:28;;;;;;;9.10;2.03;;;;;;;;;;5135404;27;20047;-71
2022/10/24 05:55:54;;;;;;;9.13;1.90;;;;;;;;;;5134917;27;20088;-71
2022/10/24 05:58:21;;;;;;;9.02;1.85;;;;;;;;;;5130634;27;20042;-71
2022/10/24 06:00:47;;;;;;;9.40;1.98;;;;;;;;;;5134529;27;20047;-71
2022/10/24 06:03:13;;;;;;;5.80;1.60;;;;;;;;;;5140316;27;20046;-71
2022/10/24 06:05:39;;;;;;;9.48;1.70;;;;;;;;;;5142514;27;20045;-71
2022/10/24 06:08:06;;;;;;;8.68;1.52;;;;;;;;;;5139789;27;20393;-71
2022/10/24 06:10:32;;;;;;;8.88;2.10;;;;;;;;;;5134006;27;20049;-71
2022/10/24 06:12:58;;;;;;;7.07;1.73;;;;;;;;;;5153343;27;20091;-71
2022/10/24 06:15:24;;;;;;;11.35;2.30;;;;;;;;;;5139774;27;20115;-71
2022/10/24 06:17:51;;;;;;;7.53;1.83;;;;;;;;;;5147132;27;20035;-71
2022/10/24 06:20:17;;;;;;;8.13;1.73;;;;;;;;;;5151609;27;20405;-71
2022/10/24 06:22:46;;;;;;;10.40;1.92;;;;;;;;;;5136412;27;20050;-71
2022/10/24 06:25:12;;;;;;;10.20;2.00;;;;;;;;;;5142464;27;20044;-71
2022/10/24 06:27:39;;;;;;;10.95;2.08;;;;;;;;;;5141219;27;20042;-71
2022/10/24 06:30:05;;;;;;;7.55;1.85;;;;;;;;;;5145836;27;20469;-72
2022/10/24 06:32:32;;;;;;;7.22;1.90;;;;;;;;;;5137417;27;20051;-72
2022/10/24 06:34:58;;;;;;;7.80;1.92;;;;;;;;;;5139623;27;20433;-71
2022/10/24 06:37:24;;;;;;;9.25;2.05;;;;;;;;;;5144058;27;20043;-71
2022/10/24 06:39:50;;;;;;;6.25;1.85;;;;;;;;;;5156472;27;20143;-72
2022/10/24 06:42:16;;;;;;;12.35;2.35;;;;;;;;;;5155422;27;20099;-72
2022/10/24 06:44:42;;;;;;;8.23;1.90;;;;;;;;;;5157231;27;20043;-72
2022/10/24 06:47:08;;;;;;;6.70;1.70;;;;;;;;;;5157392;27;20038;-70
2022/10/24 06:49:34;;;;;;;9.20;2.28;;;;;;;;;;5157282;27;20072;-70
2022/10/24 06:52:00;;;;;;;7.70;1.65;;;;;;;;;;5145466;27;20114;-70
2022/10/24 06:54:26;;;;;;;8.10;1.90;;;;;;;;;;5143784;27;20138;-70
2022/10/24 06:56:52;;;;;;;8.88;1.77;;;;;;;;;;5146702;27;20082;-71
2022/10/24 06:59:19;;;;;;;8.32;1.80;;;;;;;;;;5149318;27;20043;-71
2022/10/24 07:01:45;;;;;;;9.23;2.00;;;;;;;;;;5142011;27;20047;-71
2022/10/24 07:04:11;;;;;;;6.93;1.65;;;;;;;;;;5144920;27;20043;-71
2022/10/24 07:06:37;;;;;;;8.57;2.03;;;;;;;;;;5144104;27;20045;-71
2022/10/24 07:09:04;;;;;;;8.60;1.60;;;;;;;;;;5136718;27;20076;-71
2022/10/24 07:11:30;;;;;;;8.13;1.90;;;;;;;;;;5144271;27;20035;-71
2022/10/24 07:13:56;;;;;;;8.88;2.08;;;;;;;;;;5136623;27;20054;-71
2022/10/24 07:16:22;;;;;;;8.48;1.70;;;;;;;;;;5137033;27;20046;-71
2022/10/24 07:18:48;;;;;;;8.77;1.88;;;;;;;;;;5142914;27;20042;-71
2022/10/24 07:21:15;;;;;;;8.80;1.70;;;;;;;;;;5140421;27;20046;-71
2022/10/24 07:23:41;;;;;;;7.78;1.75;;;;;;;;;;5150679;27;20046;-71
2022/10/24 07:26:09;;;;;;;6.50;2.20;;;;;;;;;;5154854;27;20050;-71
2022/10/24 07:28:35;;;;;;;8.98;1.42;;;;;;;;;;5143115;27;20433;-71
2022/10/24 07:31:01;;;;;;;9.00;2.22;;;;;;;;;;5155997;27;20078;-71
2022/10/24 07:33:28;;;;;;;10.25;2.22;;;;;;;;;;5135753;27;20133;-71
2022/10/24 07:35:54;;;;;;;10.88;1.83;;;;;;;;;;5151113;27;20511;-71
2022/10/24 07:38:20;;;;;;;7.85;1.75;;;;;;;;;;5137599;27;20050;-71
2022/10/24 07:40:46;;;;;;;7.18;1.48;;;;;;;;;;5156207;27;20079;-71
2022/10/24 07:43:12;;;;;;;8.52;1.90;;;;;;;;;;5156385;27;20039;-70
2022/10/24 07:45:39;;;;;;;11.45;2.00;;;;;;;;;;5144018;27;20043;-71
2022/10/24 07:48:05;;;;;;;9.48;1.80;;;;;;;;;;5140494;27;20051;-71
2022/10/24 07:50:32;;;;;;;9.55;1.88;;;;;;;;;;5144424;27;20039;-71
2022/10/24 07:52:58;;;;;;;11.65;2.00;;;;;;;;;;5134717;27;20042;-71
2022/10/24 07:55:24;;;;;;;10.63;1.90;;;;;;;;;;5138626;27;20406;-69
2022/10/24 07:57:50;;;;;;;11.25;1.95;;;;;;;;;;5150540;27;20421;-70
2022/10/24 08:00:16;;;;;;;11.73;2.03;;;;;;;;;;5120036;27;20118;-70
2022/10/24 08:02:42;;;;;;;8.32;1.80;;;;;;;;;;5136401;27;20480;-71
2022/10/24 08:05:10;;;;;;;8.20;1.85;;;;;;;;;;5129816;27;20112;-71
2022/10/24 08:07:36;;;;;;;8.57;1.70;;;;;;;;;;5143264;27;20408;-70
2022/10/24 08:10:03;;;;;;;14.77;1.98;;;;;;;;;;5134960;27;20082;-70
2022/10/24 08:12:29;;;;;;;7.55;1.88;;;;;;;;;;5141252;27;20049;-74
2022/10/24 08:14:56;;;;;;;13.35;2.22;;;;;;;;;;5135454;27;20047;-72
2022/10/24 08:17:23;;;;;;;9.27;1.80;;;;;;;;;;5139370;27;20445;-73
2022/10/24 08:19:49;;;;;;;12.02;2.28;;;;;;;;;;5147870;27;20059;-71
2022/10/24 08:22:16;;;;;;;12.90;1.95;;;;;;;;;;5146637;27;20099;-70
2022/10/24 08:24:42;;;;;;;10.90;1.42;;;;;;;;;;5135268;27;20039;-69
2022/10/24 08:27:08;;;;;;;6.93;1.80;;;;;;;;;;5136313;27;20129;-70
2022/10/24 08:29:34;;;;;;;11.82;2.35;;;;;;;;;;5133417;27;20059;-73
2022/10/24 08:32:01;;;;;;;11.13;1.75;;;;;;;;;;5134837;27;20092;-70
2022/10/24 08:34:27;;;;;;;12.15;1.70;;;;;;;;;;5137563;27;20126;-71
2022/10/24 08:36:53;;;;;;;8.65;1.70;;;;;;;;;;5135246;27;20035;-72
2022/10/24 08:39:20;;;;;;;9.75;1.70;;;;;;;;;;5144607;27;20489;-70
2022/10/24 08:41:46;;;;;;;8.57;1.70;;;;;;;;;;5137863;27;20042;-69
2022/10/24 08:44:33;;;;;;;15.63;1.83;;;;;;;;;;5126166;27;20038;-69
2022/10/24 08:47:17;;;;;;;8.52;1.67;;;;;;;;;;5139423;27;20054;-69
2022/10/24 08:49:46;;;;;;;10.82;2.20;;;;;;;;;;5138521;27;20520;-69
2022/10/24 08:52:18;;;;;;;18.40;2.25;;;;;;;;;;5133149;27;20446;-69
2022/10/24 08:54:44;;;;;;;;;;;;;;;;;;5116727;27;20051;-70
2022/10/24 08:57:17;;;;;;;13.90;2.10;;;;;;;;;;5132592;27;20324;-69
2022/10/24 08:59:43;;;;;;;30.08;3.63;;;;;;;;;;5139027;27;20099;-69
2022/10/24 09:02:18;;;;;;;29.00;3.47;;;;;;;;;;5151772;27;20215;-69
2022/10/24 09:04:48;;;;;;;24.13;3.05;;;;;;;;;;5152634;27;20041;-70
2022/10/24 09:07:17;;;;;;;19.08;2.40;;;;;;;;;;5136847;27;20071;-68
2022/10/24 09:09:46;;;;;;;14.38;1.95;;;;;;;;;;5148066;27;20079;-71
2022/10/24 09:12:13;;;;;;;11.95;1.95;;;;;;;;;;5153791;27;20049;-69
2022/10/24 09:14:41;;;;;;;9.90;2.00;;;;;;;;;;5152190;27;20043;-72
2022/10/24 09:17:10;;;;;;;10.27;1.88;;;;;;;;;;5151558;27;20040;-69
2022/10/24 09:19:37;;;;;;;9.90;1.98;;;;;;;;;;5132739;27;20051;-70
2022/10/24 09:22:03;;;;;;;11.07;1.98;;;;;;;;;;5132046;27;20519;-72
2022/10/24 09:24:51;;;;;;;12.00;1.88;;;;;;;;;;5138406;27;20045;-73
2022/10/24 09:27:20;;;;;;;9.40;1.80;;;;;;;;;;5118828;27;20043;-69
2022/10/24 09:29:46;;;;;;;8.65;1.55;;;;;;;;;;5139615;27;20035;-69
2022/10/24 09:32:17;;;;;;;11.55;1.88;;;;;;;;;;5140409;27;20043;-69
2022/10/24 09:34:43;;;;;;;11.93;1.90;;;;;;;;;;5135432;27;20042;-69
2022/10/24 09:37:28;;;;;;;10.95;1.70;;;;;;;;;;5134025;27;20039;-69
2022/10/24 09:40:05;;;;;;;8.98;1.58;;;;;;;;;;5133003;27;20039;-69
2022/10/24 09:42:31;;;;;;;11.18;1.80;;;;;;;;;;5133726;27;20042;-68
2022/10/24 09:44:58;;;;;;;8.43;2.00;;;;;;;;;;5135110;27;20041;-70
2022/10/24 09:47:25;;;;;;;10.88;1.52;;;;;;;;;;5141984;27;20035;-68
2022/10/24 09:49:52;;;;;;;10.20;1.67;;;;;;;;;;5151096;27;20154;-68
2022/10/24 09:52:19;;;;;;;13.27;1.98;;;;;;;;;;5139821;27;20043;-68
2022/10/24 09:54:46;;;;;;;17.67;1.75;;;;;;;;;;5116727;27;20578;-69
2022/10/24 09:57:12;;;;;;;14.93;1.80;;;;;;;;;;5132075;27;20416;-67
2022/10/24 09:59:59;;;;;;;14.63;1.90;;;;;;;;;;5136331;27;20054;-68
2022/10/24 10:02:33;;;;;;;12.95;1.40;;;;;;;;;;5118078;27;20047;-68
2022/10/24 10:05:02;;;;;;;9.70;1.63;;;;;;;;;;5145619;27;20039;-68
2022/10/24 10:07:33;;;;;;;12.15;1.77;;;;;;;;;;5150712;27;20122;-68
2022/10/24 10:10:04;;;;;;;12.02;1.85;;;;;;;;;;5134402;27;20054;-69
2022/10/24 10:12:35;;;;;;;12.90;2.05;;;;;;;;;;5140603;27;20046;-68
2022/10/24 10:15:02;;;;;;;19.98;7.40;;;;;;;;;;5132618;27;20039;-68
2022/10/24 10:17:31;;;;;;;12.77;4.15;;;;;;;;;;5133061;27;20031;-68
2022/10/24 10:19:58;;;;;;;14.35;3.13;;;;;;;;;;5142027;27;20055;-68
2022/10/24 10:22:26;;;;;;;15.38;2.97;;;;;;;;;;5132515;27;20043;-68
2022/10/24 10:24:52;;;;;;;9.35;2.35;;;;;;;;;;5134119;27;20115;-68
2022/10/24 10:27:21;;;;;;;9.15;1.63;;;;;;;;;;5138239;27;20419;-68
2022/10/24 10:29:47;;;;;;;8.40;1.65;;;;;;;;;;5150092;27;20107;-69
2022/10/24 10:32:22;;;;;;;10.13;2.00;;;;;;;;;;5131667;27;20039;-68
2022/10/24 10:34:53;;;;;;;19.95;2.20;;;;;;;;;;5132617;27;20397;-68
2022/10/24 10:37:27;;;;;;;11.20;1.73;;;;;;;;;;5135341;27;20047;-68
2022/10/24 10:40:01;;;;;;;11.43;2.20;;;;;;;;;;5132558;27;20153;-68
2022/10/24 10:42:46;;;;;;;12.68;1.73;;;;;;;;;;5132238;27;20059;-68
2022/10/24 10:45:15;;;;;;;7.25;1.20;;;;;;;;;;5143119;27;20047;-68
2022/10/24 10:47:56;;;;;;;8.13;1.60;;;;;;;;;;5135443;27;20472;-69
2022/10/24 10:50:22;;;;;;;8.45;1.58;;;;;;;;;;5143966;27;20043;-68
2022/10/24 10:52:48;;;;;;;7.72;1.55;;;;;;;;;;5150203;27;20051;-68
2022/10/24 10:55:20;;;;;;;11.52;2.03;;;;;;;;;;5136589;27;20374;-68
2022/10/24 10:58:12;;;;;;;8.93;1.48;;;;;;;;;;5136057;27;20046;-68
2022/10/24 11:00:44;;;;;;;7.20;1.20;;;;;;;;;;5135375;27;20050;-68
2022/10/24 11:03:21;;;;;;;8.07;1.10;;;;;;;;;;5142670;27;20049;-68
2022/10/24 11:06:06;;;;;;;8.15;1.45;;;;;;;;;;5156856;27;20043;-68
2022/10/24 11:08:39;;;;;;;10.18;1.77;;;;;;;;;;5143760;27;20374;-68
2022/10/24 11:11:10;;;;;;;9.00;1.60;;;;;;;;;;5135919;27;20048;-68
2022/10/24 11:13:40;;;;;;;10.73;1.52;;;;;;;;;;5117940;27;20051;-69
2022/10/24 11:16:10;;;;;;;9.50;1.38;;;;;;;;;;5148284;27;20038;-68
2022/10/24 11:18:44;;;;;;;9.23;1.55;;;;;;;;;;5149113;27;20042;-68
2022/10/24 11:21:14;;;;;;;7.20;1.55;;;;;;;;;;5138758;27;20105;-69
2022/10/24 11:23:46;;;;;;;8.50;1.40;;;;;;;;;;5149735;27;20138;-69
2022/10/24 11:26:12;;;;;;;8.75;1.23;;;;;;;;;;5135701;27;20050;-68
2022/10/24 11:28:48;;;;;;;42.33;2.95;;;;;;;;;;5134810;27;20401;-68
2022/10/24 11:31:23;;;;;;;57.50;4.18;;;;;;;;;;5140401;27;20092;-68
2022/10/24 11:33:53;;;;;;;10.80;1.25;;;;;;;;;;5142050;27;20523;-68
2022/10/24 11:36:30;;;;;;;20.40;1.98;;;;;;;;;;5136353;27;20047;-68
2022/10/24 11:39:15;;;;;;;14.18;1.85;;;;;;;;;;5134986;27;20043;-68
2022/10/24 11:41:47;;;;;;;12.27;1.60;;;;;;;;;;5150355;27;20043;-68
2022/10/24 11:44:37;;;;;;;6.85;1.38;;;;;;;;;;5136928;27;20046;-68
2022/10/24 11:47:23;;;;;;;13.82;1.40;;;;;;;;;;5046190;28;20056;-69
2022/10/24 11:49:53;;;;;;;7.18;1.33;;;;;;;;;;5063729;28;20045;-68
2022/10/24 11:52:25;;;;;;;10.70;1.33;;;;;;;;;;5068733;28;20366;-68
2022/10/24 11:55:03;;;;;;;11.63;1.30;;;;;;;;;;5059634;28;20057;-68
2022/10/24 11:57:30;;;;;;;13.10;1.20;;;;;;;;;;5057292;28;20057;-68
2022/10/24 11:59:57;;;;;;;29.67;2.20;;;;;;;;;;5057990;28;20033;-68
2022/10/24 12:02:29;;;;;;;24.90;2.70;;;;;;;;;;5070089;28;20079;-68
2022/10/24 12:05:13;;;;;;;10.35;1.58;;;;;;;;;;5064626;28;20084;-68
2022/10/24 12:07:58;;;;;;;11.48;1.52;;;;;;;;;;5051789;28;20045;-69
2022/10/24 12:10:45;;;;;;;31.52;3.53;;;;;;;;;;5060925;28;20049;-69
2022/10/24 12:13:20;;;;;;;23.13;2.60;;;;;;;;;;5070408;28;20123;-70
2022/10/24 12:15:53;;;;;;;20.58;2.88;;;;;;;;;;5069655;28;20537;-70
2022/10/24 12:18:28;;;;;;;21.38;2.70;;;;;;;;;;5070654;28;20084;-70
2022/10/24 12:20:55;;;;;;;29.15;3.17;;;;;;;;;;5069745;28;20103;-68
2022/10/24 12:23:22;;;;;;;30.55;3.05;;;;;;;;;;5086887;27;20046;-68
2022/10/24 12:26:01;;;;;;;14.00;1.88;;;;;;;;;;5149551;27;20392;-69
2022/10/24 12:28:28;;;;;;;8.98;1.45;;;;;;;;;;5149996;27;20051;-69
2022/10/24 12:31:13;;;;;;;9.02;1.45;;;;;;;;;;5153310;27;20050;-69
2022/10/24 12:33:39;;;;;;;8.60;1.25;;;;;;;;;;5139885;27;20039;-69
2022/10/24 12:36:05;;;;;;;8.15;1.55;;;;;;;;;;5122473;27;20051;-71
2022/10/24 12:38:31;;;;;;;8.32;1.40;;;;;;;;;;5143361;27;20055;-70
2022/10/24 12:40:58;;;;;;;7.97;1.40;;;;;;;;;;5136723;27;20050;-69
2022/10/24 12:43:50;;;;;;;13.20;1.77;;;;;;;;;;5142078;27;20061;-69
2022/10/24 12:46:18;;;;;;;20.88;1.90;;;;;;;;;;5130115;27;20123;-69
2022/10/24 12:49:04;;;;;;;14.43;2.17;;;;;;;;;;5134032;27;20054;-69
2022/10/24 12:51:35;;;;;;;10.80;1.20;;;;;;;;;;5134078;27;20124;-68
2022/10/24 12:54:16;;;;;;;8.57;1.10;;;;;;;;;;5133774;27;20051;-68
2022/10/24 12:56:51;;;;;;;6.07;1.00;;;;;;;;;;5136100;27;20335;-68
2022/10/24 12:59:21;;;;;;;6.18;1.13;;;;;;;;;;5134447;27;20449;-68
2022/10/24 13:01:49;;;;;;;7.80;1.05;;;;;;;;;;5139963;27;20058;-68
2022/10/24 13:04:15;;;;;;;9.93;1.95;;;;;;;;;;5147678;27;20043;-68
2022/10/24 13:06:47;;;;;;;7.40;1.30;;;;;;;;;;5149195;27;20049;-68
2022/10/24 13:09:31;;;;;;;6.03;1.13;;;;;;;;;;5154460;27;20038;-68
2022/10/24 13:12:06;;;;;;;8.18;1.02;;;;;;;;;;5150917;27;20050;-68
2022/10/24 13:14:34;;;;;;;7.28;1.20;;;;;;;;;;5137529;27;20395;-68
2022/10/24 13:17:16;;;;;;;6.07;1.30;;;;;;;;;;5128169;27;20073;-68
2022/10/24 13:19:42;;;;;;;7.35;0.98;;;;;;;;;;5137297;27;20051;-68
2022/10/24 13:22:27;;;;;;;7.65;1.23;;;;;;;;;;5117277;27;20039;-68
2022/10/24 13:24:53;;;;;;;8.38;1.38;;;;;;;;;;5133982;27;20040;-68
2022/10/24 13:27:28;;;;;;;7.63;1.17;;;;;;;;;;5133142;27;20077;-68
2022/10/24 13:29:58;;;;;;;6.97;1.35;;;;;;;;;;5114992;27;20061;-68
2022/10/24 13:32:30;;;;;;;9.82;1.10;;;;;;;;;;5146004;27;20125;-68
2022/10/24 13:34:58;;;;;;;8.00;1.08;;;;;;;;;;5139432;27;20043;-68
2022/10/24 13:37:24;;;;;;;6.72;1.30;;;;;;;;;;5135682;27;20035;-68
2022/10/24 13:39:55;;;;;;;6.93;1.23;;;;;;;;;;5136513;27;20047;-68
2022/10/24 13:42:26;;;;;;;4.78;1.10;;;;;;;;;;5143752;27;20054;-68
2022/10/24 13:44:55;;;;;;;7.18;1.25;;;;;;;;;;5154335;27;20123;-68
2022/10/24 13:47:28;;;;;;;8.18;1.20;;;;;;;;;;5154127;27;20099;-68
2022/10/24 13:49:57;;;;;;;6.95;1.20;;;;;;;;;;5138023;27;20096;-68
2022/10/24 13:52:32;;;;;;;5.57;0.98;;;;;;;;;;5133245;27;20049;-68
2022/10/24 13:55:02;;;;;;;5.95;1.20;;;;;;;;;;5138262;27;20385;-68
2022/10/24 13:57:32;;;;;;;8.65;1.00;;;;;;;;;;5147910;27;20050;-68
2022/10/24 14:00:00;;;;;;;7.40;1.30;;;;;;;;;;5150838;27;20499;-68
2022/10/24 14:02:32;;;;;;;6.40;1.02;;;;;;;;;;5132739;27;20043;-68
2022/10/24 14:04:58;;;;;;;7.50;1.00;;;;;;;;;;5132628;27;20139;-68
2022/10/24 14:07:29;;;;;;;6.38;1.05;;;;;;;;;;5114647;28;20046;-68
2022/10/24 14:09:58;;;;;;;5.50;1.10;;;;;;;;;;5133238;28;20051;-68
2022/10/24 14:12:25;;;;;;;4.88;0.93;;;;;;;;;;5147360;27;20400;-68
2022/10/24 14:14:52;;;;;;;6.22;1.10;;;;;;;;;;5152078;27;20046;-67
2022/10/24 14:17:20;;;;;;;9.05;1.30;;;;;;;;;;5135551;27;20051;-67
2022/10/24 14:19:51;;;;;;;5.97;1.27;;;;;;;;;;5151132;27;20097;-69
2022/10/24 14:22:22;;;;;;;7.15;1.10;;;;;;;;;;5133024;28;20047;-68
2022/10/24 14:24:48;;;;;;;6.25;1.17;;;;;;;;;;5116273;27;20054;-68
2022/10/24 14:27:15;;;;;;;6.63;1.40;;;;;;;;;;5153548;27;20065;-68
2022/10/24 14:29:50;;;;;;;9.05;1.35;;;;;;;;;;5142226;27;20038;-68
2022/10/24 14:32:17;;;;;;;8.30;1.30;;;;;;;;;;5137876;27;20080;-68
2022/10/24 14:34:43;;;;;;;6.97;1.23;;;;;;;;;;5157522;27;20051;-68
2022/10/24 14:37:14;;;;;;;6.32;1.15;;;;;;;;;;5157779;27;20117;-68
2022/10/24 14:39:41;;;;;;;6.88;1.40;;;;;;;;;;5155868;27;20542;-67
2022/10/24 14:42:12;;;;;;;7.28;1.10;;;;;;;;;;5156852;27;20083;-68
2022/10/24 14:44:38;;;;;;;;;;;;;;;;;;5150235;27;20039;-68
2022/10/24 14:47:05;;;;;;;8.60;1.55;;;;;;;;;;5150052;27;20012;-68
2022/10/24 14:49:35;;;;;;;5.13;1.10;;;;;;;;;;5136483;27;20087;-68